createdAt,value
2019-05-22T00:03:00.489Z,98212.66
2019-05-22T00:06:06.547Z,98211.93
2019-05-22T00:09:21.212Z,98225.99
2019-05-22T00:12:27.582Z,98221.05
2019-05-22T00:15:33.687Z,98228.28
2019-05-22T00:18:40.056Z,98223.39
2019-05-22T00:21:46.733Z,98224.55
2019-05-22T00:24:52.950Z,98230.86
2019-05-22T00:28:00.409Z,98224.83
2019-05-22T00:31:06.556Z,98235.01
2019-05-22T00:34:11.647Z,98226.40
2019-05-22T00:37:17.610Z,98232.30
2019-05-22T00:40:22.497Z,98229.11
2019-05-22T00:43:34.370Z,98229.09
2019-05-22T00:46:40.320Z,98236.13
2019-05-22T00:49:46.775Z,98231.58
2019-05-22T00:53:04.367Z,98233.25
2019-05-22T00:56:12.593Z,98229.42
2019-05-22T00:59:29.315Z,98231.08
2019-05-22T01:02:36.602Z,98232.19
2019-05-22T01:05:42.722Z,98232.39
2019-05-22T01:08:49.256Z,98237.25
2019-05-22T01:11:55.450Z,98235.30
2019-05-22T01:15:04.997Z,98236.11
2019-05-22T01:18:11.694Z,98235.09
2019-05-22T01:21:19.683Z,98234.80
2019-05-22T01:24:25.298Z,98239.20
2019-05-22T01:27:32.660Z,98242.13
2019-05-22T01:30:40.249Z,98233.83
2019-05-22T01:33:52.425Z,98235.58
2019-05-22T01:36:58.005Z,98237.43
2019-05-22T01:40:12.478Z,98230.22
2019-05-22T01:43:27.679Z,98235.52
2019-05-22T01:46:34.435Z,98240.55
2019-05-22T01:49:44.698Z,98237.07
2019-05-22T01:52:52.011Z,98237.67
2019-05-22T01:55:58.599Z,98243.03
2019-05-22T01:59:04.960Z,98236.52
2019-05-22T02:02:09.767Z,98243.76
2019-05-22T02:05:16.567Z,98238.38
2019-05-22T02:08:24.231Z,98241.31
2019-05-22T02:11:30.215Z,98235.81
2019-05-22T02:14:35.101Z,98233.70
2019-05-22T02:17:39.816Z,98228.86
2019-05-22T02:20:45.241Z,98234.06
2019-05-22T02:23:49.860Z,98232.92
2019-05-22T02:26:55.010Z,98241.17
2019-05-22T02:30:00.050Z,98246.94
2019-05-22T02:33:07.168Z,98257.57
2019-05-22T02:36:12.105Z,98248.55
2019-05-22T02:39:28.987Z,98253.53
2019-05-22T02:42:34.471Z,98257.59
2019-05-22T02:45:39.678Z,98261.55
2019-05-22T02:48:44.715Z,98253.17
2019-05-22T02:51:50.881Z,98255.34
2019-05-22T02:54:55.605Z,98259.36
2019-05-22T02:58:00.444Z,98261.30
2019-05-22T03:01:06.274Z,98262.52
2019-05-22T03:04:11.556Z,98257.13
2019-05-22T03:07:16.173Z,98266.54
2019-05-22T03:10:23.870Z,98267.95
2019-05-22T03:13:57.789Z,98270.19
2019-05-22T03:17:07.344Z,98269.97
2019-05-22T03:20:17.317Z,98272.90
2019-05-22T03:23:36.864Z,98269.92
2019-05-22T03:26:51.936Z,98275.30
2019-05-22T03:29:58.302Z,98272.58
2019-05-22T03:33:06.008Z,98270.48
2019-05-22T03:36:16.753Z,98280.39
2019-05-22T03:39:22.398Z,98288.31
2019-05-22T03:42:27.319Z,98291.58
2019-05-22T03:45:33.192Z,98297.17
2019-05-22T03:48:38.894Z,98294.99
2019-05-22T03:51:46.165Z,98297.31
2019-05-22T03:54:51.093Z,98291.20
2019-05-22T03:57:56.409Z,98294.13
2019-05-22T04:01:02.811Z,98294.05
2019-05-22T04:04:10.014Z,98284.91
2019-05-22T04:07:21.435Z,98292.17
2019-05-22T04:10:31.557Z,98296.72
2019-05-22T04:13:36.846Z,98297.27
2019-05-22T04:16:41.833Z,98302.84
2019-05-22T04:19:51.062Z,98307.26
2019-05-22T04:22:58.946Z,98306.46
2019-05-22T04:26:05.138Z,98309.64
2019-05-22T04:29:11.233Z,98310.50
2019-05-22T04:32:17.559Z,98309.16
2019-05-22T04:35:24.446Z,98313.71
2019-05-22T04:38:30.026Z,98314.82
2019-05-22T04:41:34.658Z,98320.55
2019-05-22T04:44:44.186Z,98324.81
2019-05-22T04:48:01.726Z,98325.30
2019-05-22T04:51:26.724Z,98323.70
2019-05-22T04:54:31.136Z,98325.30
2019-05-22T04:57:36.699Z,98328.56
2019-05-22T05:00:41.477Z,98333.41
2019-05-22T05:03:46.298Z,98337.61
2019-05-22T05:06:51.453Z,98339.20
2019-05-22T05:09:55.904Z,98341.80
2019-05-22T05:13:00.365Z,98338.22
2019-05-22T05:16:05.404Z,98342.52
2019-05-22T05:19:10.329Z,98338.19
2019-05-22T05:22:19.484Z,98341.73
2019-05-22T05:25:24.010Z,98347.39
2019-05-22T05:28:28.729Z,98352.48
2019-05-22T05:31:33.342Z,98349.50
2019-05-22T05:34:48.518Z,98355.75
2019-05-22T05:37:53.231Z,98356.23
2019-05-22T05:40:57.872Z,98357.50
2019-05-22T05:44:02.399Z,98360.53
2019-05-22T05:47:08.276Z,98366.39
2019-05-22T05:50:15.432Z,98355.07
2019-05-22T05:53:22.174Z,98361.83
2019-05-22T05:56:30.355Z,98361.83
2019-05-22T05:59:35.180Z,98365.84
2019-05-22T06:02:54.032Z,98369.83
2019-05-22T06:05:46.253Z,98369.25
2019-05-22T06:08:51.208Z,98370.52
2019-05-22T06:11:59.492Z,98370.93
2019-05-22T06:15:05.045Z,98369.91
2019-05-22T06:18:32.268Z,98369.61
2019-05-22T06:21:39.899Z,98366.52
2019-05-22T06:24:52.546Z,98367.04
2019-05-22T06:27:58.996Z,98374.78
2019-05-22T06:31:05.549Z,98371.94
2019-05-22T06:34:11.034Z,98374.63
2019-05-22T06:37:32.121Z,98379.65
2019-05-22T06:40:36.866Z,98383.98
2019-05-22T06:43:46.019Z,98385.16
2019-05-22T06:46:50.648Z,98399.20
2019-05-22T06:49:56.001Z,98396.61
2019-05-22T06:53:09.929Z,98407.97
2019-05-22T06:56:08.505Z,98406.55
2019-05-22T06:59:13.398Z,98407.50
2019-05-22T07:02:19.597Z,98399.71
2019-05-22T07:05:24.682Z,98402.88
2019-05-22T07:08:29.116Z,98407.71
2019-05-22T07:11:34.313Z,98406.97
2019-05-22T07:14:44.681Z,98409.08
2019-05-22T07:17:52.185Z,98401.80
2019-05-22T07:20:57.014Z,98405.95
2019-05-22T07:24:03.221Z,98409.85
2019-05-22T07:27:26.867Z,98409.34
2019-05-22T07:30:32.179Z,98417.83
2019-05-22T07:33:37.129Z,98414.80
2019-05-22T07:36:43.190Z,98423.66
2019-05-22T07:39:48.206Z,98421.44
2019-05-22T07:42:53.700Z,98416.28
2019-05-22T07:45:59.636Z,98420.84
2019-05-22T07:49:04.286Z,98420.48
2019-05-22T07:52:09.807Z,98420.16
2019-05-22T07:55:16.229Z,98420.75
2019-05-22T07:58:21.704Z,98420.80
2019-05-22T08:01:26.332Z,98419.81
2019-05-22T08:04:33.048Z,98421.55
2019-05-22T08:07:39.422Z,98421.17
2019-05-22T08:10:45.003Z,98423.47
2019-05-22T08:13:49.783Z,98431.05
2019-05-22T08:16:55.074Z,98430.85
2019-05-22T08:20:00.030Z,98438.44
2019-05-22T08:23:04.792Z,98429.50
2019-05-22T08:26:12.189Z,98429.64
2019-05-22T08:29:18.280Z,98433.02
2019-05-22T08:32:24.481Z,98432.69
2019-05-22T08:35:30.639Z,98427.85
2019-05-22T08:38:36.025Z,98428.55
2019-05-22T08:41:43.771Z,98427.29
2019-05-22T08:44:48.937Z,98433.52
2019-05-22T08:47:53.927Z,98431.92
2019-05-22T08:50:59.247Z,98432.77
2019-05-22T08:54:06.034Z,98429.73
2019-05-22T08:57:11.998Z,98434.11
2019-05-22T09:00:20.157Z,98439.72
2019-05-22T09:03:25.200Z,98441.20
2019-05-22T09:06:29.704Z,98446.06
2019-05-22T09:09:34.906Z,98443.20
2019-05-22T09:12:39.698Z,98446.66
2019-05-22T09:15:45.186Z,98445.20
2019-05-22T09:18:50.328Z,98448.44
2019-05-22T09:21:55.221Z,98450.59
2019-05-22T09:25:00.561Z,98448.67
2019-05-22T09:28:05.645Z,98453.95
2019-05-22T09:31:10.090Z,98450.98
2019-05-22T09:34:15.330Z,98454.53
2019-05-22T09:37:20.046Z,98459.75
2019-05-22T09:40:25.201Z,98456.53
2019-05-22T09:43:29.820Z,98462.89
2019-05-22T09:46:34.541Z,98467.06
2019-05-22T09:49:39.785Z,98467.25
2019-05-22T09:52:56.789Z,98463.39
2019-05-22T09:55:54.029Z,98461.03
2019-05-22T09:58:58.923Z,98462.89
2019-05-22T10:02:06.373Z,98472.62
2019-05-22T10:05:12.324Z,98468.94
2019-05-22T10:08:16.776Z,98469.81
2019-05-22T10:11:21.493Z,98478.70
2019-05-22T10:14:25.987Z,98481.45
2019-05-22T10:17:31.076Z,98476.75
2019-05-22T10:20:35.799Z,98477.86
2019-05-22T10:23:41.237Z,98482.16
2019-05-22T10:26:46.347Z,98486.92
2019-05-22T10:29:52.240Z,98479.53
2019-05-22T10:32:56.764Z,98484.00
2019-05-22T10:36:01.699Z,98474.84
2019-05-22T10:39:08.499Z,98471.94
2019-05-22T10:42:13.179Z,98477.22
2019-05-22T10:45:17.966Z,98473.75
2019-05-22T10:48:22.422Z,98488.75
2019-05-22T10:51:27.404Z,98491.19
2019-05-22T10:54:32.132Z,98488.91
2019-05-22T10:57:40.656Z,98491.02
2019-05-22T11:00:43.654Z,98489.84
2019-05-22T11:03:48.289Z,98482.24
2019-05-22T11:06:54.349Z,98488.19
2019-05-22T11:09:59.237Z,98478.43
2019-05-22T11:13:04.029Z,98479.36
2019-05-22T11:16:10.156Z,98480.75
2019-05-22T11:19:15.701Z,98485.66
2019-05-22T11:22:20.515Z,98483.05
2019-05-22T11:25:25.686Z,98488.51
2019-05-22T11:28:31.407Z,98484.59
2019-05-22T11:31:36.262Z,98486.70
2019-05-22T11:34:40.701Z,98488.45
2019-05-22T11:37:45.212Z,98492.52
2019-05-22T11:40:50.261Z,98489.46
2019-05-22T11:43:55.347Z,98480.12
2019-05-22T11:47:00.328Z,98484.31
2019-05-22T11:50:07.311Z,98483.09
2019-05-22T11:53:13.793Z,98481.86
2019-05-22T11:56:18.408Z,98482.13
2019-05-22T11:59:24.205Z,98478.16
2019-05-22T12:02:29.022Z,98473.52
2019-05-22T12:05:34.005Z,98475.13
2019-05-22T12:08:38.767Z,98476.70
2019-05-22T12:11:43.715Z,98485.10
2019-05-22T12:14:48.167Z,98491.78
2019-05-22T12:17:53.818Z,98481.52
2019-05-22T12:20:58.624Z,98483.20
2019-05-22T12:24:03.350Z,98492.24
2019-05-22T12:27:08.426Z,98493.02
2019-05-22T12:30:14.211Z,98490.20
2019-05-22T12:33:18.919Z,98492.42
2019-05-22T12:36:23.364Z,98488.40
2019-05-22T12:39:29.241Z,98486.81
2019-05-22T12:42:34.391Z,98476.80
2019-05-22T12:45:38.972Z,98482.82
2019-05-22T12:48:43.950Z,98488.63
2019-05-22T12:51:49.355Z,98487.88
2019-05-22T12:54:54.789Z,98492.98
2019-05-22T12:58:00.270Z,98491.34
2019-05-22T13:01:06.115Z,98488.62
2019-05-22T13:04:12.741Z,98490.91
2019-05-22T13:07:17.190Z,98485.06
2019-05-22T13:10:23.573Z,98487.66
2019-05-22T13:13:28.357Z,98483.36
2019-05-22T13:16:33.709Z,98488.09
2019-05-22T13:19:39.187Z,98479.62
2019-05-22T13:22:47.734Z,98475.16
2019-05-22T13:25:53.198Z,98483.80
2019-05-22T13:28:58.364Z,98483.80
2019-05-22T13:32:04.322Z,98479.70
2019-05-22T13:35:10.269Z,98477.61
2019-05-22T13:38:15.738Z,98480.88
2019-05-22T13:41:20.870Z,98479.25
2019-05-22T13:44:25.705Z,98476.37
2019-05-22T13:47:30.586Z,98466.52
2019-05-22T13:50:35.271Z,98472.83
2019-05-22T13:53:41.539Z,98479.04
2019-05-22T13:56:46.516Z,98480.77
2019-05-22T13:59:51.221Z,98475.05
2019-05-22T14:02:55.903Z,98474.79
2019-05-22T14:06:01.562Z,98476.84
2019-05-22T14:09:11.312Z,98478.45
2019-05-22T14:12:16.488Z,98470.27
2019-05-22T14:15:21.103Z,98476.70
2019-05-22T14:18:26.239Z,98471.70
2019-05-22T14:21:30.974Z,98466.12
2019-05-22T14:24:36.091Z,98468.28
2019-05-22T14:27:41.848Z,98472.49
2019-05-22T14:30:46.705Z,98465.71
2019-05-22T14:33:51.818Z,98457.89
2019-05-22T14:36:57.574Z,98466.68
2019-05-22T14:40:02.753Z,98464.67
2019-05-22T14:43:08.326Z,98463.13
2019-05-22T14:46:13.325Z,98457.40
2019-05-22T14:49:20.715Z,98459.14
2019-05-22T14:52:24.585Z,98454.97
2019-05-22T14:55:30.012Z,98459.74
2019-05-22T14:58:35.803Z,98453.14
2019-05-22T15:01:40.258Z,98446.37
2019-05-22T15:04:44.696Z,98459.33
2019-05-22T15:07:49.727Z,98451.45
2019-05-22T15:10:55.166Z,98449.41
2019-05-22T15:13:59.622Z,98449.77
2019-05-22T15:17:04.147Z,98445.62
2019-05-22T15:20:11.195Z,98450.59
2019-05-22T15:23:15.650Z,98443.68
2019-05-22T15:26:20.337Z,98443.59
2019-05-22T15:29:25.918Z,98439.59
2019-05-22T15:32:30.642Z,98446.53
2019-05-22T15:35:35.790Z,98449.02
2019-05-22T15:38:43.187Z,98446.48
2019-05-22T15:41:48.121Z,98448.13
2019-05-22T15:44:52.946Z,98446.05
2019-05-22T15:48:02.876Z,98446.53
2019-05-22T15:51:08.253Z,98449.04
2019-05-22T15:54:14.199Z,98459.34
2019-05-22T15:57:21.392Z,98461.00
2019-05-22T16:00:29.517Z,98457.40
2019-05-22T16:03:35.304Z,98459.03
2019-05-22T16:06:40.302Z,98453.30
2019-05-22T16:09:46.554Z,98451.59
2019-05-22T16:12:51.155Z,98457.29
2019-05-22T16:15:57.883Z,98449.41
2019-05-22T16:19:05.673Z,98456.81
2019-05-22T16:22:11.899Z,98455.73
2019-05-22T16:25:17.370Z,98452.98
2019-05-22T16:28:23.725Z,98453.66
2019-05-22T16:31:28.402Z,98450.14
2019-05-22T16:34:33.221Z,98450.88
2019-05-22T16:37:38.579Z,98449.20
2019-05-22T16:40:44.733Z,98456.51
2019-05-22T16:43:51.231Z,98456.83
2019-05-22T16:46:57.193Z,98455.81
2019-05-22T16:50:02.506Z,98458.67
2019-05-22T16:53:10.826Z,98454.52
2019-05-22T16:56:16.845Z,98451.13
2019-05-22T16:59:22.230Z,98457.33
2019-05-22T17:02:27.366Z,98457.50
2019-05-22T17:05:32.408Z,98457.88
2019-05-22T17:08:38.409Z,98455.59
2019-05-22T17:11:43.592Z,98451.84
2019-05-22T17:14:51.389Z,98460.75
2019-05-22T17:17:56.539Z,98457.87
2019-05-22T17:21:01.687Z,98456.02
2019-05-22T17:24:09.135Z,98461.06
2019-05-22T17:27:16.644Z,98463.94
2019-05-22T17:30:24.149Z,98462.48
2019-05-22T17:33:29.191Z,98458.25
2019-05-22T17:36:34.291Z,98462.47
2019-05-22T17:39:41.685Z,98463.42
2019-05-22T17:42:48.399Z,98470.42
2019-05-22T17:45:54.118Z,98466.99
2019-05-22T17:49:00.501Z,98470.27
2019-05-22T17:52:05.920Z,98477.03
2019-05-22T17:55:12.691Z,98478.78
2019-05-22T17:58:18.257Z,98482.22
2019-05-22T18:01:24.256Z,98480.88
2019-05-22T18:04:29.107Z,98484.00
2019-05-22T18:07:34.176Z,98480.97
2019-05-22T18:10:41.730Z,98488.52
2019-05-22T18:13:56.312Z,98487.64
2019-05-22T18:17:01.034Z,98493.28
2019-05-22T18:20:08.561Z,98489.84
2019-05-22T18:23:13.258Z,98492.63
2019-05-22T18:26:18.160Z,98496.75
2019-05-22T18:29:22.671Z,98508.91
2019-05-22T18:32:27.452Z,98504.46
2019-05-22T18:35:32.902Z,98505.05
2019-05-22T18:38:37.642Z,98506.87
2019-05-22T18:41:42.672Z,98513.98
2019-05-22T18:44:47.111Z,98517.78
2019-05-22T18:47:52.348Z,98521.34
2019-05-22T18:50:56.962Z,98520.47
2019-05-22T18:54:01.405Z,98521.06
2019-05-22T18:57:06.218Z,98520.80
2019-05-22T19:00:12.100Z,98525.80
2019-05-22T19:03:16.982Z,98532.13
2019-05-22T19:06:30.460Z,98530.70
2019-05-22T19:09:28.630Z,98529.52
2019-05-22T19:12:33.867Z,98538.47
2019-05-22T19:15:39.322Z,98540.58
2019-05-22T19:18:44.146Z,98544.09
2019-05-22T19:21:48.594Z,98543.81
2019-05-22T19:24:53.304Z,98543.67
2019-05-22T19:27:58.062Z,98544.87
2019-05-22T19:31:03.181Z,98543.36
2019-05-22T19:34:07.699Z,98552.05
2019-05-22T19:37:12.394Z,98553.42
2019-05-22T19:40:18.050Z,98564.02
2019-05-22T19:43:22.576Z,98560.86
2019-05-22T19:46:27.465Z,98566.84
2019-05-22T19:49:32.485Z,98571.72
2019-05-22T19:52:41.868Z,98573.13
2019-05-22T19:55:46.978Z,98579.90
2019-05-22T19:58:52.038Z,98576.09
2019-05-22T20:01:56.729Z,98581.78
2019-05-22T20:05:01.780Z,98581.54
2019-05-22T20:08:06.209Z,98583.17
2019-05-22T20:11:10.822Z,98581.05
2019-05-22T20:14:16.377Z,98577.50
2019-05-22T20:17:21.086Z,98581.63
2019-05-22T20:20:27.340Z,98588.91
2019-05-22T20:23:35.865Z,98585.42
2019-05-22T20:26:38.575Z,98590.30
2019-05-22T20:29:43.153Z,98587.89
2019-05-22T20:32:47.599Z,98593.84
2019-05-22T20:35:52.449Z,98597.34
2019-05-22T20:38:57.296Z,98597.34
2019-05-22T20:42:02.051Z,98598.44
2019-05-22T20:45:09.581Z,98602.48
2019-05-22T20:48:17.827Z,98597.14
2019-05-22T20:51:24.783Z,98598.76
2019-05-22T20:54:30.358Z,98597.97
2019-05-22T20:57:35.832Z,98599.06
2019-05-22T21:00:42.073Z,98606.36
2019-05-22T21:03:46.907Z,98598.29
2019-05-22T21:07:01.197Z,98603.09
2019-05-22T21:10:08.125Z,98598.27
2019-05-22T21:13:15.216Z,98598.00
2019-05-22T21:16:21.025Z,98598.01
2019-05-22T21:19:27.355Z,98606.59
2019-05-22T21:22:32.558Z,98603.63
2019-05-22T21:25:37.576Z,98606.87
2019-05-22T21:28:42.923Z,98604.70
2019-05-22T21:31:48.535Z,98603.89
2019-05-22T21:34:54.053Z,98602.52
2019-05-22T21:37:58.564Z,98606.00
2019-05-22T21:41:04.326Z,98600.13
2019-05-22T21:44:10.034Z,98603.86
2019-05-22T21:47:14.775Z,98593.94
2019-05-22T21:50:20.552Z,98592.86
2019-05-22T21:53:26.460Z,98590.43
2019-05-22T21:56:32.007Z,98583.48
2019-05-22T21:59:36.949Z,98582.68
2019-05-22T22:02:45.744Z,98586.14
2019-05-22T22:05:51.028Z,98588.83
2019-05-22T22:08:55.493Z,98594.20
2019-05-22T22:12:00.373Z,98592.57
2019-05-22T22:15:08.566Z,98593.11
2019-05-22T22:18:15.423Z,98594.17
2019-05-22T22:21:20.037Z,98588.01
2019-05-22T22:24:24.625Z,98600.06
2019-05-22T22:27:29.512Z,98598.20
2019-05-22T22:30:39.206Z,98590.66
2019-05-22T22:33:48.210Z,98598.97
2019-05-22T22:36:53.097Z,98598.42
2019-05-22T22:39:59.554Z,98603.82
2019-05-22T22:43:05.606Z,98597.09
2019-05-22T22:46:19.265Z,98602.42
2019-05-22T22:49:23.974Z,98603.24
2019-05-22T22:52:29.160Z,98599.77
2019-05-22T22:55:34.404Z,98606.66
2019-05-22T22:58:39.133Z,98609.82
2019-05-22T23:01:48.962Z,98607.35
2019-05-22T23:04:54.317Z,98605.23
2019-05-22T23:08:00.562Z,98611.16
2019-05-22T23:11:07.140Z,98614.94
2019-05-22T23:14:12.711Z,98615.41
2019-05-22T23:17:17.156Z,98614.05
2019-05-22T23:20:20.138Z,98614.33
2019-05-22T23:23:23.691Z,98610.48
2019-05-22T23:26:28.906Z,98617.92
2019-05-22T23:29:34.797Z,98619.88
2019-05-22T23:32:42.048Z,98624.12
2019-05-22T23:35:46.656Z,98620.53
2019-05-22T23:38:51.899Z,98619.69
2019-05-22T23:41:58.498Z,98616.70
2019-05-22T23:45:06.938Z,98613.58
2019-05-22T23:48:13.461Z,98616.18
2019-05-22T23:51:19.073Z,98614.55
2019-05-22T23:54:24.190Z,98618.86
2019-05-22T23:57:29.656Z,98620.48
